Colton, Washington
Current Conditions -  °F | °C
As of 4:53 PM on Monday 26 Jan 2015 (Local Time) from KPUW Reporting Station
Clear Clear  
Wind Chill: 11°   Ceiling: Unl
Heat Index: 11°   Visibility: 10mi
Dew Point:   Wind: 8mph
Humidity: 63%   Direction: 50°NE
Pressure: 30.04"   Gusts: NA
Location:  46.57°N, 117.13°W
Report Text: KPUW 270053Z AUTO 05007KT 10SM CLR 11/04 A3004 RMK AO2 SLP176 T01060039
Loading
Personal Weather Stations






























Interactive Weather Map New forecast layout! Learn more

10-Day Weather Forecast

Advertisements
Track Severe Weather on mobile